createdAt,value
2018-12-23T00:01:45.220Z,10.94
2018-12-23T00:04:16.611Z,10.94
2018-12-23T00:06:48.289Z,10.94
2018-12-23T00:09:20.180Z,10.91
2018-12-23T00:11:52.024Z,10.88
2018-12-23T00:14:23.916Z,10.84
2018-12-23T00:16:55.539Z,10.84
2018-12-23T00:19:27.171Z,10.88
2018-12-23T00:21:59.433Z,10.90
2018-12-23T00:24:31.817Z,10.88
2018-12-23T00:27:03.243Z,10.88
2018-12-23T00:29:34.479Z,10.91
2018-12-23T00:32:05.858Z,10.92
2018-12-23T00:34:38.056Z,10.97
2018-12-23T00:37:09.291Z,10.92
2018-12-23T00:39:40.691Z,10.94
2018-12-23T00:42:11.827Z,10.99
2018-12-23T00:44:43.070Z,10.92
2018-12-23T00:47:14.064Z,10.87
2018-12-23T00:49:45.061Z,10.84
2018-12-23T00:52:16.903Z,10.80
2018-12-23T00:54:48.105Z,10.78
2018-12-23T00:57:19.362Z,10.78
2018-12-23T00:59:51.282Z,10.78
2018-12-23T01:02:22.461Z,10.75
2018-12-23T01:04:53.538Z,10.73
2018-12-23T01:07:25.071Z,10.72
2018-12-23T01:09:56.420Z,10.76
2018-12-23T01:12:27.600Z,10.74
2018-12-23T01:14:58.802Z,10.72
2018-12-23T01:17:29.961Z,10.71
2018-12-23T01:20:01.333Z,10.73
2018-12-23T01:22:32.705Z,10.75
2018-12-23T01:25:04.061Z,10.83
2018-12-23T01:27:35.153Z,10.81
2018-12-23T01:30:07.303Z,10.76
2018-12-23T01:32:38.561Z,10.74
2018-12-23T01:35:10.519Z,10.77
2018-12-23T01:37:42.114Z,10.75
2018-12-23T01:40:14.494Z,10.81
2018-12-23T01:42:45.599Z,10.78
2018-12-23T01:45:17.512Z,10.71
2018-12-23T01:47:48.825Z,10.63
2018-12-23T01:50:19.992Z,10.59
2018-12-23T01:52:50.846Z,10.58
2018-12-23T01:55:21.630Z,10.59
2018-12-23T01:57:52.426Z,10.61
2018-12-23T02:00:23.400Z,10.62
2018-12-23T02:02:54.262Z,10.61
2018-12-23T02:05:24.937Z,10.63
2018-12-23T02:07:55.656Z,10.66
2018-12-23T02:10:26.368Z,10.69
2018-12-23T02:12:57.283Z,10.67
2018-12-23T02:15:28.113Z,10.66
2018-12-23T02:17:58.949Z,10.67
2018-12-23T02:20:29.741Z,10.66
2018-12-23T02:23:00.587Z,10.63
2018-12-23T02:25:32.036Z,10.62
2018-12-23T02:28:02.915Z,10.58
2018-12-23T02:30:33.795Z,10.55
2018-12-23T02:33:04.735Z,10.53
2018-12-23T02:35:35.822Z,10.55
2018-12-23T02:38:06.735Z,10.56
2018-12-23T02:40:37.564Z,10.55
2018-12-23T02:43:08.276Z,10.53
2018-12-23T02:45:39.035Z,10.57
2018-12-23T02:48:09.947Z,10.59
2018-12-23T02:50:40.833Z,10.59
2018-12-23T02:53:11.559Z,10.58
2018-12-23T02:55:42.411Z,10.58
2018-12-23T02:58:13.283Z,10.61
2018-12-23T03:00:44.148Z,10.59
2018-12-23T03:03:14.925Z,10.60
2018-12-23T03:05:45.639Z,10.58
2018-12-23T03:08:16.527Z,10.58
2018-12-23T03:10:47.166Z,10.57
2018-12-23T03:13:17.954Z,10.56
2018-12-23T03:15:48.915Z,10.56
2018-12-23T03:18:19.532Z,10.56
2018-12-23T03:20:50.148Z,10.53
2018-12-23T03:23:21.014Z,10.51
2018-12-23T03:25:51.710Z,10.52
2018-12-23T03:28:22.303Z,10.53
2018-12-23T03:30:53.380Z,10.53
2018-12-23T03:33:24.637Z,10.53
2018-12-23T03:35:55.616Z,10.50
2018-12-23T03:38:26.433Z,10.48
2018-12-23T03:40:57.452Z,10.48
2018-12-23T03:43:28.280Z,10.50
2018-12-23T03:45:59.426Z,10.51
2018-12-23T03:48:30.375Z,10.53
2018-12-23T03:51:01.167Z,10.53
2018-12-23T03:53:31.989Z,10.53
2018-12-23T03:56:02.895Z,10.51
2018-12-23T03:58:33.802Z,10.51
2018-12-23T04:01:04.714Z,10.51
2018-12-23T04:03:35.512Z,10.53
2018-12-23T04:06:06.339Z,10.53
2018-12-23T04:08:37.739Z,10.53
2018-12-23T04:11:08.421Z,10.53
2018-12-23T04:13:40.024Z,10.55
2018-12-23T04:16:10.978Z,10.55
2018-12-23T04:18:41.899Z,10.56
2018-12-23T04:21:12.460Z,10.56
2018-12-23T04:23:43.300Z,10.56
2018-12-23T04:26:14.048Z,10.54
2018-12-23T04:28:44.808Z,10.57
2018-12-23T04:31:16.643Z,10.62
2018-12-23T04:33:47.531Z,10.57
2018-12-23T04:36:18.153Z,10.53
2018-12-23T04:38:49.277Z,10.45
2018-12-23T04:41:20.074Z,10.41
2018-12-23T04:43:50.945Z,10.37
2018-12-23T04:46:21.846Z,10.35
2018-12-23T04:48:52.586Z,10.34
2018-12-23T04:51:23.369Z,10.38
2018-12-23T04:53:54.005Z,10.38
2018-12-23T04:56:24.830Z,10.44
2018-12-23T04:58:55.467Z,10.41
2018-12-23T05:01:26.518Z,10.49
2018-12-23T05:03:57.317Z,10.50
2018-12-23T05:06:28.177Z,10.48
2018-12-23T05:08:58.845Z,10.55
2018-12-23T05:11:29.624Z,10.47
2018-12-23T05:14:00.394Z,10.49
2018-12-23T05:16:31.231Z,10.47
2018-12-23T05:19:01.893Z,10.46
2018-12-23T05:21:32.883Z,10.43
2018-12-23T05:24:03.757Z,10.44
2018-12-23T05:26:34.658Z,10.43
2018-12-23T05:29:05.731Z,10.43
2018-12-23T05:31:36.573Z,10.36
2018-12-23T05:34:07.504Z,10.36
2018-12-23T05:36:38.128Z,10.34
2018-12-23T05:39:09.670Z,10.30
2018-12-23T05:41:40.509Z,10.32
2018-12-23T05:44:11.168Z,10.33
2018-12-23T05:46:42.059Z,10.29
2018-12-23T05:49:12.845Z,10.25
2018-12-23T05:51:43.586Z,10.23
2018-12-23T05:54:14.469Z,10.18
2018-12-23T05:56:45.471Z,10.15
2018-12-23T05:59:16.265Z,10.12
2018-12-23T06:01:47.307Z,10.08
2018-12-23T06:04:18.148Z,10.06
2018-12-23T06:06:49.168Z,10.07
2018-12-23T06:09:19.904Z,10.08
2018-12-23T06:11:51.455Z,10.07
2018-12-23T06:14:22.594Z,10.06
2018-12-23T06:16:53.527Z,10.05
2018-12-23T06:19:24.673Z,10.04
2018-12-23T06:21:55.512Z,10.03
2018-12-23T06:24:26.467Z,10.04
2018-12-23T06:26:57.630Z,10.07
2018-12-23T06:29:28.286Z,10.07
2018-12-23T06:31:59.079Z,10.07
2018-12-23T06:34:29.691Z,10.06
2018-12-23T06:37:00.497Z,10.03
2018-12-23T06:39:31.581Z,10.04
2018-12-23T06:42:02.671Z,10.03
2018-12-23T06:44:33.712Z,10.10
2018-12-23T06:47:04.573Z,10.11
2018-12-23T06:49:36.346Z,10.14
2018-12-23T06:52:07.443Z,10.11
2018-12-23T06:54:38.482Z,10.14
2018-12-23T06:57:09.441Z,10.15
2018-12-23T06:59:40.428Z,10.19
2018-12-23T07:02:13.381Z,10.18
2018-12-23T07:04:45.473Z,10.18
2018-12-23T07:07:18.707Z,10.19
2018-12-23T07:09:49.291Z,10.22
2018-12-23T07:12:20.141Z,10.24
2018-12-23T07:14:51.057Z,10.32
2018-12-23T07:17:22.369Z,10.34
2018-12-23T07:19:53.435Z,10.35
2018-12-23T07:22:24.309Z,10.37
2018-12-23T07:24:55.301Z,10.39
2018-12-23T07:27:26.087Z,10.44
2018-12-23T07:29:57.208Z,10.46
2018-12-23T07:32:28.255Z,10.50
2018-12-23T07:34:59.700Z,10.53
2018-12-23T07:37:30.527Z,10.57
2018-12-23T07:40:02.037Z,10.60
2018-12-23T07:42:33.078Z,10.63
2018-12-23T07:45:04.923Z,10.71
2018-12-23T07:47:36.177Z,10.74
2018-12-23T07:50:07.827Z,10.76
2018-12-23T07:52:39.020Z,10.77
2018-12-23T07:55:10.104Z,10.79
2018-12-23T07:57:41.237Z,10.84
2018-12-23T08:00:12.803Z,10.91
2018-12-23T08:02:43.708Z,10.96
2018-12-23T08:05:14.543Z,10.97
2018-12-23T08:07:45.620Z,10.97
2018-12-23T08:10:16.901Z,11.00
2018-12-23T08:12:48.422Z,11.03
2018-12-23T08:15:20.464Z,11.08
2018-12-23T08:17:51.750Z,11.11
2018-12-23T08:20:23.085Z,11.09
2018-12-23T08:22:54.690Z,11.15
2018-12-23T08:25:26.509Z,11.15
2018-12-23T08:27:58.001Z,11.22
2018-12-23T08:30:30.605Z,11.34
2018-12-23T08:33:02.450Z,11.38
2018-12-23T08:35:35.433Z,11.41
2018-12-23T08:38:07.678Z,11.47
2018-12-23T08:40:40.795Z,11.51
2018-12-23T08:43:14.311Z,11.56
2018-12-23T08:45:47.681Z,11.54
2018-12-23T08:48:19.039Z,11.52
2018-12-23T08:50:51.365Z,11.61
2018-12-23T08:53:23.190Z,11.46
2018-12-23T08:55:55.100Z,11.50
2018-12-23T08:58:26.464Z,11.58
2018-12-23T09:00:57.582Z,11.64
2018-12-23T09:03:29.359Z,11.30
2018-12-23T09:06:00.670Z,11.48
2018-12-23T09:08:33.116Z,11.41
2018-12-23T09:11:13.864Z,11.36
2018-12-23T09:13:46.581Z,11.56
2018-12-23T09:16:18.157Z,11.51
2018-12-23T09:18:50.048Z,11.39
2018-12-23T09:21:22.015Z,11.40
2018-12-23T09:23:53.459Z,11.33
2018-12-23T09:26:24.478Z,11.43
2018-12-23T09:28:56.829Z,11.31
2018-12-23T09:31:27.865Z,11.14
2018-12-23T09:33:59.511Z,11.33
2018-12-23T09:36:31.208Z,11.40
2018-12-23T09:39:01.978Z,11.53
2018-12-23T09:41:34.047Z,11.44
2018-12-23T09:44:05.027Z,11.49
2018-12-23T09:46:36.530Z,11.50
2018-12-23T09:49:07.511Z,11.64
2018-12-23T09:51:38.996Z,11.50
2018-12-23T09:54:10.794Z,11.72
2018-12-23T09:56:42.164Z,11.84
2018-12-23T09:59:13.685Z,11.93
2018-12-23T10:01:45.921Z,11.92
2018-12-23T10:04:17.444Z,11.78
2018-12-23T10:06:49.797Z,12.01
2018-12-23T10:09:21.948Z,12.20
2018-12-23T10:11:53.180Z,12.47
2018-12-23T10:14:24.472Z,12.58
2018-12-23T10:16:56.366Z,12.63
2018-12-23T10:19:28.156Z,12.25
2018-12-23T10:21:59.680Z,12.29
2018-12-23T10:24:33.992Z,12.48
2018-12-23T10:27:05.497Z,12.65
2018-12-23T10:29:36.719Z,12.83
2018-12-23T10:32:08.218Z,13.04
2018-12-23T10:34:39.337Z,13.31
2018-12-23T10:37:11.260Z,13.45
2018-12-23T10:39:42.766Z,13.52
2018-12-23T10:42:14.188Z,13.49
2018-12-23T10:44:45.836Z,13.30
2018-12-23T10:47:17.740Z,13.18
2018-12-23T10:49:50.092Z,13.28
2018-12-23T10:52:22.196Z,13.30
2018-12-23T10:54:53.215Z,13.38
2018-12-23T10:57:24.298Z,13.57
2018-12-23T10:59:55.506Z,13.70
2018-12-23T11:02:27.385Z,14.04
2018-12-23T11:04:59.356Z,14.37
2018-12-23T11:07:31.847Z,14.31
2018-12-23T11:10:03.701Z,14.31
2018-12-23T11:12:36.676Z,14.52
2018-12-23T11:15:11.655Z,14.54
2018-12-23T11:17:43.880Z,14.60
2018-12-23T11:20:16.100Z,14.61
2018-12-23T11:22:48.686Z,14.90
2018-12-23T11:25:20.839Z,14.59
2018-12-23T11:27:53.673Z,13.86
2018-12-23T11:30:25.561Z,13.93
2018-12-23T11:32:57.245Z,14.52
2018-12-23T11:35:30.071Z,14.61
2018-12-23T11:38:02.185Z,14.80
2018-12-23T11:40:34.847Z,14.57
2018-12-23T11:43:10.062Z,14.74
2018-12-23T11:45:41.908Z,15.01
2018-12-23T11:48:13.486Z,15.16
2018-12-23T11:50:45.021Z,14.40
2018-12-23T11:53:16.197Z,14.66
2018-12-23T11:55:48.692Z,14.78
2018-12-23T11:58:20.334Z,15.21
2018-12-23T12:00:51.971Z,14.61
2018-12-23T12:03:24.228Z,15.02
2018-12-23T12:05:55.477Z,15.63
2018-12-23T12:08:27.371Z,15.81
2018-12-23T12:10:58.812Z,16.36
2018-12-23T12:13:29.934Z,16.42
2018-12-23T12:16:00.771Z,16.80
2018-12-23T12:18:31.707Z,17.58
2018-12-23T12:21:02.905Z,18.34
2018-12-23T12:23:34.306Z,18.52
2018-12-23T12:26:05.626Z,18.74
2018-12-23T12:28:36.861Z,19.36
2018-12-23T12:31:08.377Z,19.24
2018-12-23T12:33:39.796Z,19.01
2018-12-23T12:36:10.811Z,18.74
2018-12-23T12:38:42.774Z,18.35
2018-12-23T12:41:14.275Z,18.03
2018-12-23T12:43:45.605Z,17.92
2018-12-23T12:46:16.774Z,18.40
2018-12-23T12:48:48.765Z,18.72
2018-12-23T12:51:21.591Z,19.66
2018-12-23T12:53:53.858Z,20.47
2018-12-23T12:56:26.661Z,21.05
2018-12-23T12:58:59.002Z,21.05
2018-12-23T13:01:31.166Z,20.75
2018-12-23T13:04:02.259Z,20.72
2018-12-23T13:06:33.152Z,20.49
2018-12-23T13:09:05.531Z,20.29
2018-12-23T13:11:37.499Z,19.91
2018-12-23T13:14:08.569Z,19.74
2018-12-23T13:16:40.096Z,19.39
2018-12-23T13:19:12.457Z,19.09
2018-12-23T13:21:43.592Z,18.58
2018-12-23T13:24:15.999Z,18.39
2018-12-23T13:26:47.671Z,18.44
2018-12-23T13:29:19.054Z,18.48
2018-12-23T13:31:51.609Z,18.32
2018-12-23T13:34:23.388Z,16.35
2018-12-23T13:36:55.702Z,16.66
2018-12-23T13:39:27.005Z,16.62
2018-12-23T13:42:38.110Z,17.27
2018-12-23T13:46:04.409Z,18.43
2018-12-23T13:51:00.061Z,18.94
2018-12-23T13:55:49.590Z,19.07
2018-12-23T13:58:35.582Z,19.24
2018-12-23T14:02:23.325Z,19.03
2018-12-23T14:05:22.626Z,19.46
2018-12-23T14:08:17.349Z,19.75
2018-12-23T14:11:58.017Z,19.73
2018-12-23T14:14:29.373Z,18.58
2018-12-23T14:17:00.846Z,18.00
2018-12-23T14:19:32.641Z,17.60
2018-12-23T14:22:03.559Z,17.18
2018-12-23T14:24:34.861Z,16.82
2018-12-23T14:27:06.711Z,16.55
2018-12-23T14:29:37.783Z,16.26
2018-12-23T14:32:09.140Z,16.04
2018-12-23T14:34:40.273Z,15.93
2018-12-23T14:37:11.537Z,15.78
2018-12-23T14:39:43.354Z,15.67
2018-12-23T14:42:14.578Z,15.56
2018-12-23T14:44:46.831Z,15.43
2018-12-23T14:47:18.474Z,15.31
2018-12-23T14:49:50.471Z,15.19
2018-12-23T14:52:22.019Z,15.09
2018-12-23T14:54:53.646Z,15.00
2018-12-23T14:57:25.129Z,14.89
2018-12-23T14:59:56.469Z,14.81
2018-12-23T15:02:27.667Z,14.72
2018-12-23T15:04:59.329Z,14.64
2018-12-23T15:07:30.428Z,14.58
2018-12-23T15:10:01.322Z,14.53
2018-12-23T15:12:32.296Z,14.44
2018-12-23T15:15:03.131Z,14.31
2018-12-23T15:17:34.453Z,14.19
2018-12-23T15:20:06.639Z,14.05
2018-12-23T15:22:38.027Z,13.87
2018-12-23T15:25:09.241Z,13.73
2018-12-23T15:27:40.085Z,13.57
2018-12-23T15:30:11.605Z,13.44
2018-12-23T15:32:42.717Z,13.33
2018-12-23T15:35:14.643Z,13.20
2018-12-23T15:37:46.216Z,13.05
2018-12-23T15:40:17.242Z,12.84
2018-12-23T15:42:51.207Z,12.67
2018-12-23T15:45:22.588Z,12.48
2018-12-23T15:47:53.951Z,12.39
2018-12-23T15:50:24.986Z,12.30
2018-12-23T15:52:56.791Z,12.16
2018-12-23T15:55:28.732Z,12.00
2018-12-23T15:58:38.057Z,12.02
2018-12-23T16:01:09.785Z,11.92
2018-12-23T16:03:42.617Z,11.79
2018-12-23T16:06:14.306Z,11.67
2018-12-23T16:08:46.020Z,11.63
2018-12-23T16:11:17.753Z,11.55
2018-12-23T16:13:49.701Z,11.46
2018-12-23T16:16:22.692Z,11.45
2018-12-23T16:18:54.753Z,11.55
2018-12-23T16:21:26.525Z,11.63
2018-12-23T16:23:58.182Z,11.65
2018-12-23T16:26:30.511Z,11.72
2018-12-23T16:29:02.962Z,11.74
2018-12-23T16:31:34.888Z,11.70
2018-12-23T16:34:07.251Z,11.77
2018-12-23T16:36:39.432Z,11.68
2018-12-23T16:39:11.775Z,11.66
2018-12-23T16:41:43.514Z,11.67
2018-12-23T16:44:15.539Z,11.67
2018-12-23T16:46:47.385Z,11.68
2018-12-23T16:49:19.183Z,11.70
2018-12-23T16:51:51.566Z,11.64
2018-12-23T16:54:24.179Z,11.64
2018-12-23T16:56:59.605Z,11.61
2018-12-23T16:59:32.080Z,11.65
2018-12-23T17:02:04.327Z,11.67
2018-12-23T17:04:37.182Z,11.71
2018-12-23T17:07:09.535Z,11.87
2018-12-23T17:09:41.649Z,11.89
2018-12-23T17:12:13.914Z,11.99
2018-12-23T17:14:48.344Z,11.96
2018-12-23T17:17:20.175Z,11.98
2018-12-23T17:19:52.528Z,11.97
2018-12-23T17:22:24.839Z,11.88
2018-12-23T17:24:57.156Z,11.91
2018-12-23T17:27:29.889Z,11.99
2018-12-23T17:30:02.423Z,11.72
2018-12-23T17:32:37.726Z,11.40
2018-12-23T17:35:10.027Z,11.19
2018-12-23T17:37:43.175Z,11.12
2018-12-23T17:40:16.583Z,11.09
2018-12-23T17:42:49.917Z,11.03
2018-12-23T17:45:22.890Z,11.05
2018-12-23T17:47:55.151Z,10.92
2018-12-23T17:50:27.771Z,10.79
2018-12-23T17:53:01.877Z,10.63
2018-12-23T17:55:34.814Z,10.47
2018-12-23T17:58:07.840Z,10.31
2018-12-23T18:00:40.931Z,10.26
2018-12-23T18:03:12.671Z,10.15
2018-12-23T18:05:45.604Z,10.00
2018-12-23T18:08:17.250Z,9.93
2018-12-23T18:10:51.925Z,9.82
2018-12-23T18:13:23.921Z,9.72
2018-12-23T18:15:57.734Z,9.77
2018-12-23T18:18:30.334Z,9.78
2018-12-23T18:21:02.639Z,9.81
2018-12-23T18:23:36.535Z,9.87
2018-12-23T18:26:08.543Z,9.94
2018-12-23T18:28:40.433Z,9.93
2018-12-23T18:31:12.353Z,10.02
2018-12-23T18:33:44.267Z,10.10
2018-12-23T18:36:18.173Z,10.21
2018-12-23T18:38:50.422Z,10.32
2018-12-23T18:41:22.981Z,10.32
2018-12-23T18:43:55.019Z,10.24
2018-12-23T18:46:26.974Z,10.18
2018-12-23T18:48:58.736Z,10.14
2018-12-23T18:51:30.508Z,10.11
2018-12-23T18:54:02.428Z,10.07
2018-12-23T18:56:46.922Z,10.00
2018-12-23T18:59:22.057Z,9.93
2018-12-23T19:02:09.889Z,9.85
2018-12-23T19:04:42.228Z,9.80
2018-12-23T19:07:14.482Z,9.95
2018-12-23T19:10:17.097Z,10.03
2018-12-23T19:14:00.454Z,10.03
2018-12-23T19:17:32.691Z,10.09
2018-12-23T19:21:16.157Z,10.07
2018-12-23T19:24:39.471Z,10.16
2018-12-23T19:28:41.565Z,10.18
2018-12-23T19:32:18.051Z,10.20
2018-12-23T19:35:48.308Z,10.28
2018-12-23T19:39:06.840Z,10.28
2018-12-23T19:42:29.321Z,10.32
2018-12-23T19:45:51.097Z,10.23
2018-12-23T19:49:17.444Z,10.12
2018-12-23T19:53:03.133Z,9.93
2018-12-23T19:56:37.001Z,9.90
2018-12-23T19:59:56.384Z,9.66
2018-12-23T20:03:19.489Z,9.58
2018-12-23T20:06:46.146Z,9.54
2018-12-23T20:10:03.866Z,9.51
2018-12-23T20:13:45.054Z,9.41
2018-12-23T20:17:26.557Z,9.44
2018-12-23T20:21:24.641Z,9.63
2018-12-23T20:24:43.681Z,9.58
2018-12-23T20:27:55.141Z,9.57
2018-12-23T20:31:18.320Z,9.61
2018-12-23T20:34:59.717Z,9.71
2018-12-23T20:38:14.797Z,9.77
2018-12-23T20:42:07.519Z,9.80
2018-12-23T20:45:47.778Z,9.79
2018-12-23T20:49:12.888Z,9.63
2018-12-23T20:53:01.956Z,9.44
2018-12-23T20:56:34.833Z,9.40
2018-12-23T20:59:54.413Z,9.37
2018-12-23T21:03:24.791Z,9.44
2018-12-23T21:06:49.790Z,9.33
2018-12-23T21:10:07.614Z,9.05
2018-12-23T21:13:46.300Z,8.81
2018-12-23T21:17:16.124Z,8.79
2018-12-23T21:20:43.075Z,8.80
2018-12-23T21:24:16.385Z,8.75
2018-12-23T21:28:07.454Z,8.75
2018-12-23T21:31:32.266Z,8.71
2018-12-23T21:34:51.186Z,8.53
2018-12-23T21:38:29.145Z,8.47
2018-12-23T21:42:03.130Z,8.58
2018-12-23T21:45:24.547Z,8.84
2018-12-23T21:49:07.656Z,8.96
2018-12-23T21:52:28.268Z,8.97
2018-12-23T21:56:14.529Z,8.97
2018-12-23T21:59:43.582Z,8.96
2018-12-23T22:03:39.352Z,8.86
2018-12-23T22:07:00.791Z,8.69
2018-12-23T22:10:42.143Z,8.67
2018-12-23T22:13:40.772Z,8.66
2018-12-23T22:16:30.548Z,8.64
2018-12-23T22:19:09.698Z,8.56
2018-12-23T22:21:47.419Z,8.46
2018-12-23T22:24:25.849Z,8.25
2018-12-23T22:27:05.897Z,8.13
2018-12-23T22:29:42.511Z,8.01
2018-12-23T22:32:19.817Z,7.95
2018-12-23T22:34:55.386Z,7.92
2018-12-23T22:37:32.498Z,8.00
2018-12-23T22:40:10.159Z,8.13
2018-12-23T22:42:48.566Z,8.22
2018-12-23T22:45:27.490Z,8.28
2018-12-23T22:48:14.367Z,8.37
2018-12-23T22:50:55.713Z,8.43
2018-12-23T22:53:32.949Z,8.49
2018-12-23T22:56:08.404Z,8.51
2018-12-23T22:58:47.085Z,8.52
2018-12-23T23:01:23.446Z,8.53
2018-12-23T23:03:57.835Z,8.51
2018-12-23T23:06:32.154Z,8.48
2018-12-23T23:09:10.679Z,8.50
2018-12-23T23:11:49.787Z,8.57
2018-12-23T23:14:23.656Z,8.63
2018-12-23T23:17:00.000Z,8.59
2018-12-23T23:19:34.675Z,8.59
2018-12-23T23:22:09.968Z,8.55
2018-12-23T23:24:44.855Z,8.46
2018-12-23T23:27:20.663Z,8.43
2018-12-23T23:29:55.442Z,8.46
2018-12-23T23:32:31.701Z,8.51
2018-12-23T23:35:11.674Z,8.52
2018-12-23T23:37:47.189Z,8.51
2018-12-23T23:40:20.870Z,8.58
2018-12-23T23:42:54.435Z,8.64
2018-12-23T23:45:30.689Z,8.68
2018-12-23T23:48:07.650Z,8.72
2018-12-23T23:50:42.806Z,8.75
2018-12-23T23:53:18.046Z,8.77
2018-12-23T23:55:54.082Z,8.81
2018-12-23T23:58:30.237Z,8.84
